Time;durP1;ratioP1;P1;durP2;ratioP2;P2;SDS_P1;SDS_P2;PMS_P1;PMS_P2;Temp;Humidity;BMP_temperature;BMP_pressure;BME280_temperature;BME280_humidity;BME280_pressure;Samples;Min_cycle;Max_cycle;Signal;HPM_P1;HPM_P2
2022/05/31 00:02:23;;;;;;;2.88;2.25;;;;;;;;;;5014924;28;20030;-76
2022/05/31 00:04:48;;;;;;;2.80;2.28;;;;;;;;;;4997458;28;20032;-76
2022/05/31 00:07:14;;;;;;;3.15;2.20;;;;;;;;;;5014898;28;20524;-76
2022/05/31 00:09:39;;;;;;;2.95;2.20;;;;;;;;;;5014499;28;20026;-76
2022/05/31 00:12:06;;;;;;;4.57;2.50;;;;;;;;;;4997004;28;20026;-76
2022/05/31 00:14:32;;;;;;;2.60;2.38;;;;;;;;;;5014690;28;20033;-77
2022/05/31 00:16:59;;;;;;;3.67;2.10;;;;;;;;;;4997043;28;20037;-77
2022/05/31 00:19:25;;;;;;;3.40;2.40;;;;;;;;;;5014451;28;20029;-77
2022/05/31 00:22:04;;;;;;;3.83;2.13;;;;;;;;;;5014920;28;20030;-77
2022/05/31 00:24:29;;;;;;;2.97;2.10;;;;;;;;;;5014794;28;20025;-76
2022/05/31 00:26:55;;;;;;;4.55;2.50;;;;;;;;;;5014387;28;20055;-76
2022/05/31 00:29:20;;;;;;;3.40;2.30;;;;;;;;;;5014329;28;20099;-76
2022/05/31 00:31:47;;;;;;;3.20;2.42;;;;;;;;;;5014058;28;20033;-76
2022/05/31 00:34:13;;;;;;;4.28;2.35;;;;;;;;;;5014386;28;20076;-77
2022/05/31 00:36:41;;;;;;;3.95;2.30;;;;;;;;;;4996979;28;20390;-77
2022/05/31 00:39:07;;;;;;;2.65;2.28;;;;;;;;;;5014202;28;20076;-77
2022/05/31 00:41:34;;;;;;;3.75;2.40;;;;;;;;;;5014175;28;20026;-76
2022/05/31 00:44:16;;;;;;;3.05;2.25;;;;;;;;;;4996725;28;20056;-76
2022/05/31 00:46:47;;;;;;;3.72;2.30;;;;;;;;;;5014270;28;20026;-76
2022/05/31 00:49:25;;;;;;;3.50;2.17;;;;;;;;;;4996457;28;20022;-76
2022/05/31 00:51:55;;;;;;;3.72;2.20;;;;;;;;;;5013943;28;20025;-76
2022/05/31 00:54:23;;;;;;;2.42;2.17;;;;;;;;;;5014207;28;20037;-77
2022/05/31 00:56:51;;;;;;;2.50;2.20;;;;;;;;;;5013902;28;20391;-77
2022/05/31 00:59:23;;;;;;;3.15;2.45;;;;;;;;;;5014147;28;20045;-76
2022/05/31 01:01:51;;;;;;;5.53;2.30;;;;;;;;;;5013823;28;20107;-76
2022/05/31 01:04:20;;;;;;;2.83;2.50;;;;;;;;;;4996048;28;20065;-76
2022/05/31 01:06:45;;;;;;;2.58;2.20;;;;;;;;;;5013718;28;20517;-77
2022/05/31 01:09:11;;;;;;;4.95;2.20;;;;;;;;;;4996151;28;20030;-76
2022/05/31 01:11:39;;;;;;;3.55;2.38;;;;;;;;;;5013678;28;20097;-76
2022/05/31 01:14:05;;;;;;;2.60;2.13;;;;;;;;;;5013767;28;20438;-77
2022/05/31 01:16:31;;;;;;;3.53;2.45;;;;;;;;;;4996236;28;20032;-77
2022/05/31 01:18:56;;;;;;;2.28;1.98;;;;;;;;;;4996095;28;20017;-76
2022/05/31 01:21:22;;;;;;;2.63;2.13;;;;;;;;;;5013065;28;20036;-76
2022/05/31 01:24:12;;;;;;;2.72;2.38;;;;;;;;;;5013803;28;20032;-77
2022/05/31 01:26:55;;;;;;;2.80;2.15;;;;;;;;;;5013661;28;20038;-77
2022/05/31 01:29:27;;;;;;;3.03;2.33;;;;;;;;;;5013795;28;20021;-76
2022/05/31 01:31:57;;;;;;;3.28;2.42;;;;;;;;;;4995648;28;20285;-77
2022/05/31 01:34:31;;;;;;;3.50;2.50;;;;;;;;;;5013851;28;20046;-77
2022/05/31 01:37:00;;;;;;;2.72;2.38;;;;;;;;;;5013378;28;20478;-77
2022/05/31 01:39:32;;;;;;;3.40;2.90;;;;;;;;;;5013511;28;20080;-76
2022/05/31 01:42:07;;;;;;;3.15;2.50;;;;;;;;;;5013561;28;20018;-77
2022/05/31 01:44:35;;;;;;;3.60;2.88;;;;;;;;;;5013701;28;20025;-76
2022/05/31 01:47:02;;;;;;;3.83;2.63;;;;;;;;;;4995846;28;20088;-76
2022/05/31 01:49:32;;;;;;;3.30;2.75;;;;;;;;;;5013423;28;20073;-77
2022/05/31 01:51:58;;;;;;;3.63;2.90;;;;;;;;;;5013162;28;20026;-76
2022/05/31 01:54:24;;;;;;;3.75;2.90;;;;;;;;;;5013459;28;20037;-77
2022/05/31 01:56:55;;;;;;;3.78;2.60;;;;;;;;;;5013761;28;20028;-76
2022/05/31 01:59:20;;;;;;;4.32;2.80;;;;;;;;;;5013551;28;20026;-76
2022/05/31 02:01:46;;;;;;;4.25;2.67;;;;;;;;;;5013110;28;20443;-77
2022/05/31 02:04:15;;;;;;;3.60;2.90;;;;;;;;;;5013409;28;20030;-75
2022/05/31 02:06:41;;;;;;;3.17;2.85;;;;;;;;;;5013123;28;20026;-76
2022/05/31 02:09:11;;;;;;;7.70;2.80;;;;;;;;;;5013002;28;20029;-76
2022/05/31 02:11:37;;;;;;;4.05;2.90;;;;;;;;;;5013069;28;20033;-77
2022/05/31 02:14:04;;;;;;;4.10;2.65;;;;;;;;;;5013177;28;20410;-76
2022/05/31 02:16:29;;;;;;;3.60;2.83;;;;;;;;;;5012984;28;20483;-75
2022/05/31 02:21:39;;;;;;;4.90;2.58;;;;;;;;;;5013485;28;20087;-77
2022/05/31 02:24:08;;;;;;;6.32;2.60;;;;;;;;;;5013023;28;20034;-76
2022/05/31 02:26:33;;;;;;;3.38;2.67;;;;;;;;;;4995505;28;20022;-77
2022/05/31 02:28:59;;;;;;;3.33;2.70;;;;;;;;;;5012934;28;20037;-76
2022/05/31 02:31:26;;;;;;;5.60;2.60;;;;;;;;;;4995254;28;20025;-76
2022/05/31 02:33:51;;;;;;;4.95;2.80;;;;;;;;;;5016204;28;20045;-77
2022/05/31 02:36:16;;;;;;;4.18;2.70;;;;;;;;;;5016821;28;20390;-76
2022/05/31 02:38:41;;;;;;;3.70;2.90;;;;;;;;;;5016938;28;20113;-77
2022/05/31 02:41:07;;;;;;;3.77;2.70;;;;;;;;;;5016636;28;20084;-76
2022/05/31 02:43:32;;;;;;;3.22;2.70;;;;;;;;;;4998967;28;20255;-76
2022/05/31 02:46:00;;;;;;;3.47;2.75;;;;;;;;;;5016364;28;20034;-76
2022/05/31 02:48:26;;;;;;;3.95;2.80;;;;;;;;;;5016250;28;20049;-76
2022/05/31 02:50:51;;;;;;;2.85;2.55;;;;;;;;;;5016449;28;20057;-77
2022/05/31 02:53:17;;;;;;;3.45;2.78;;;;;;;;;;5016393;28;20116;-75
2022/05/31 02:55:42;;;;;;;2.92;2.60;;;;;;;;;;5016128;28;20072;-76
2022/05/31 02:58:07;;;;;;;3.05;2.53;;;;;;;;;;5016205;28;20026;-77
2022/05/31 03:00:32;;;;;;;4.03;3.03;;;;;;;;;;5016264;28;20498;-76
2022/05/31 03:02:58;;;;;;;3.10;2.77;;;;;;;;;;5016603;28;20030;-76
2022/05/31 03:05:23;;;;;;;3.75;2.90;;;;;;;;;;4998372;28;20295;-77
2022/05/31 03:07:48;;;;;;;4.90;2.93;;;;;;;;;;4998398;28;20113;-76
2022/05/31 03:10:14;;;;;;;3.53;2.80;;;;;;;;;;5015846;28;20362;-76
2022/05/31 03:12:39;;;;;;;5.50;2.97;;;;;;;;;;5015775;28;20302;-76
2022/05/31 03:15:09;;;;;;;3.45;3.00;;;;;;;;;;5016024;28;20479;-77
2022/05/31 03:17:38;;;;;;;3.55;2.65;;;;;;;;;;5016022;28;20200;-76
2022/05/31 03:20:22;;;;;;;4.00;2.70;;;;;;;;;;5015792;28;20441;-75
2022/05/31 03:22:56;;;;;;;3.97;2.95;;;;;;;;;;5015988;28;20022;-77
2022/05/31 03:25:25;;;;;;;2.85;2.47;;;;;;;;;;5016004;28;20033;-77
2022/05/31 03:27:52;;;;;;;4.60;2.67;;;;;;;;;;5015742;28;20040;-77
2022/05/31 03:30:20;;;;;;;4.20;2.97;;;;;;;;;;5015689;28;20028;-77
2022/05/31 03:32:46;;;;;;;4.05;2.92;;;;;;;;;;5015433;28;20113;-77
2022/05/31 03:35:11;;;;;;;5.72;2.72;;;;;;;;;;5015574;28;20455;-76
2022/05/31 03:37:38;;;;;;;4.45;3.05;;;;;;;;;;5015465;28;20026;-76
2022/05/31 03:40:04;;;;;;;4.38;3.10;;;;;;;;;;5015768;28;20101;-76
2022/05/31 03:42:29;;;;;;;5.03;2.90;;;;;;;;;;5015439;28;20072;-77
2022/05/31 03:44:55;;;;;;;5.07;3.53;;;;;;;;;;5014723;28;20435;-77
2022/05/31 03:47:20;;;;;;;5.57;3.70;;;;;;;;;;5015370;28;20704;-76
2022/05/31 03:49:45;;;;;;;6.43;3.90;;;;;;;;;;5015240;28;20372;-77
2022/05/31 03:52:10;;;;;;;5.07;3.43;;;;;;;;;;5015468;28;20612;-77
2022/05/31 03:54:37;;;;;;;4.90;3.30;;;;;;;;;;5015318;28;20263;-77
2022/05/31 03:57:04;;;;;;;5.35;3.40;;;;;;;;;;5015129;28;20057;-77
2022/05/31 03:59:33;;;;;;;5.75;3.75;;;;;;;;;;5015087;28;20025;-76
2022/05/31 04:01:58;;;;;;;6.10;3.80;;;;;;;;;;5015043;28;20076;-76
2022/05/31 04:04:24;;;;;;;4.78;3.60;;;;;;;;;;5015196;28;20026;-77
2022/05/31 04:06:49;;;;;;;5.57;3.67;;;;;;;;;;5015751;28;20104;-77
2022/05/31 04:09:14;;;;;;;6.17;3.80;;;;;;;;;;5015108;28;20025;-77
2022/05/31 04:11:39;;;;;;;4.70;3.08;;;;;;;;;;4997164;28;20270;-77
2022/05/31 04:14:05;;;;;;;5.13;2.80;;;;;;;;;;5014827;28;20395;-77
2022/05/31 04:16:30;;;;;;;4.43;2.70;;;;;;;;;;5014697;28;20620;-75
2022/05/31 04:18:55;;;;;;;4.20;2.65;;;;;;;;;;5014894;28;20091;-77
2022/05/31 04:21:21;;;;;;;4.28;2.70;;;;;;;;;;5014779;28;20033;-77
2022/05/31 04:24:02;;;;;;;3.85;2.67;;;;;;;;;;5014653;28;20029;-77
2022/05/31 04:26:35;;;;;;;3.63;2.63;;;;;;;;;;5014782;28;20049;-76
2022/05/31 04:29:00;;;;;;;3.60;2.53;;;;;;;;;;5014977;28;20451;-76
2022/05/31 04:31:26;;;;;;;6.00;2.78;;;;;;;;;;5014374;28;20032;-77
2022/05/31 04:33:52;;;;;;;3.65;2.30;;;;;;;;;;5014703;28;20029;-78
2022/05/31 04:36:18;;;;;;;3.65;2.30;;;;;;;;;;5014330;28;20506;-76
2022/05/31 04:38:44;;;;;;;3.08;2.28;;;;;;;;;;5014461;28;20026;-77
2022/05/31 04:41:28;;;;;;;2.58;2.10;;;;;;;;;;5014176;28;20049;-77
2022/05/31 04:43:55;;;;;;;3.03;2.20;;;;;;;;;;5014501;28;20060;-77
2022/05/31 04:46:23;;;;;;;2.95;2.30;;;;;;;;;;5014563;28;20026;-77
2022/05/31 04:48:49;;;;;;;2.90;2.35;;;;;;;;;;4996642;28;20445;-77
2022/05/31 04:51:15;;;;;;;3.08;2.50;;;;;;;;;;5014103;28;20033;-77
2022/05/31 04:53:41;;;;;;;6.72;2.63;;;;;;;;;;5014017;28;20506;-77
2022/05/31 04:56:10;;;;;;;4.03;2.53;;;;;;;;;;5013499;28;20393;-77
2022/05/31 04:58:36;;;;;;;4.22;2.50;;;;;;;;;;5013946;28;20022;-76
2022/05/31 05:01:01;;;;;;;5.25;2.20;;;;;;;;;;5014068;28;20036;-77
2022/05/31 05:03:30;;;;;;;4.20;2.40;;;;;;;;;;5014005;28;20130;-77
2022/05/31 05:06:06;;;;;;;3.42;2.50;;;;;;;;;;5013862;28;20032;-77
2022/05/31 05:08:33;;;;;;;4.32;2.38;;;;;;;;;;5013877;28;20061;-76
2022/05/31 05:11:00;;;;;;;3.70;2.35;;;;;;;;;;5014001;28;20100;-76
2022/05/31 05:13:26;;;;;;;2.70;2.30;;;;;;;;;;4996259;28;20040;-77
2022/05/31 05:15:53;;;;;;;3.50;2.50;;;;;;;;;;5014095;28;20383;-77
2022/05/31 05:18:18;;;;;;;3.38;2.30;;;;;;;;;;5013943;28;20565;-77
2022/05/31 05:20:44;;;;;;;2.97;2.22;;;;;;;;;;5013775;28;20104;-77
2022/05/31 05:23:09;;;;;;;3.95;2.45;;;;;;;;;;5013813;28;20093;-77
2022/05/31 05:25:34;;;;;;;3.50;2.50;;;;;;;;;;5013555;28;20108;-77
2022/05/31 05:28:00;;;;;;;3.80;2.17;;;;;;;;;;5013728;28;20342;-76
2022/05/31 05:30:39;;;;;;;3.35;2.30;;;;;;;;;;5013706;28;20030;-75
2022/05/31 05:33:05;;;;;;;3.65;2.30;;;;;;;;;;5013293;28;20057;-76
2022/05/31 05:35:30;;;;;;;5.32;2.38;;;;;;;;;;5013696;28;20087;-76
2022/05/31 05:37:55;;;;;;;4.22;2.45;;;;;;;;;;5013704;28;20028;-78
2022/05/31 05:40:20;;;;;;;4.32;2.10;;;;;;;;;;5013380;28;20049;-76
2022/05/31 05:42:45;;;;;;;4.53;2.27;;;;;;;;;;4996432;28;20029;-76
2022/05/31 05:45:11;;;;;;;3.67;2.40;;;;;;;;;;5013365;28;20263;-76
2022/05/31 05:47:37;;;;;;;3.22;2.42;;;;;;;;;;5013664;28;20252;-77
2022/05/31 05:50:03;;;;;;;5.82;2.45;;;;;;;;;;5013260;28;20026;-77
2022/05/31 05:52:29;;;;;;;5.00;2.55;;;;;;;;;;5013268;28;20029;-76
2022/05/31 05:54:54;;;;;;;3.28;2.35;;;;;;;;;;5013277;28;20052;-77
2022/05/31 05:57:19;;;;;;;3.65;2.50;;;;;;;;;;5013489;28;20494;-76
2022/05/31 05:59:44;;;;;;;8.57;2.58;;;;;;;;;;5013219;28;20336;-76
2022/05/31 06:02:28;;;;;;;4.40;2.40;;;;;;;;;;5012974;28;20083;-76
2022/05/31 06:05:09;;;;;;;3.97;2.40;;;;;;;;;;5013428;28;20033;-76
2022/05/31 06:07:40;;;;;;;4.43;2.25;;;;;;;;;;5014418;28;20025;-75
2022/05/31 06:10:16;;;;;;;4.13;2.35;;;;;;;;;;5016788;28;20079;-75
2022/05/31 06:12:47;;;;;;;2.72;2.38;;;;;;;;;;5016906;28;20036;-76
2022/05/31 06:15:21;;;;;;;6.82;2.50;;;;;;;;;;5016958;28;20041;-76
2022/05/31 06:17:49;;;;;;;5.05;2.30;;;;;;;;;;5016906;28;20436;-76
2022/05/31 06:20:15;;;;;;;3.90;2.40;;;;;;;;;;5017104;28;20109;-76
2022/05/31 06:22:41;;;;;;;3.08;2.33;;;;;;;;;;5016538;28;20490;-76
2022/05/31 06:25:10;;;;;;;4.00;2.30;;;;;;;;;;5016693;28;20161;-75
2022/05/31 06:27:35;;;;;;;3.83;2.35;;;;;;;;;;5017161;28;20026;-76
2022/05/31 06:30:00;;;;;;;3.67;2.40;;;;;;;;;;5016813;28;20383;-76
2022/05/31 06:32:26;;;;;;;4.22;2.20;;;;;;;;;;5016480;28;20632;-76
2022/05/31 06:34:51;;;;;;;3.33;2.40;;;;;;;;;;5016439;28;20025;-76
2022/05/31 06:37:16;;;;;;;5.93;2.40;;;;;;;;;;5016605;28;20034;-76
2022/05/31 06:39:44;;;;;;;3.25;2.25;;;;;;;;;;5016379;28;20268;-75
2022/05/31 06:42:10;;;;;;;4.38;2.33;;;;;;;;;;5016477;28;20026;-76
2022/05/31 06:44:38;;;;;;;3.05;2.28;;;;;;;;;;5016579;28;20029;-76
2022/05/31 06:47:04;;;;;;;3.28;2.45;;;;;;;;;;5016224;28;20032;-77
2022/05/31 06:49:31;;;;;;;4.68;2.50;;;;;;;;;;5016584;28;20030;-77
2022/05/31 06:57:33;;;;;;;5.05;2.42;;;;;;;;;;5016096;28;20161;-77
2022/05/31 06:59:58;;;;;;;5.20;2.08;;;;;;;;;;4998374;28;20018;-76
2022/05/31 07:02:24;;;;;;;3.33;2.08;;;;;;;;;;4998361;28;20040;-76
2022/05/31 07:04:49;;;;;;;3.35;2.20;;;;;;;;;;5016120;28;20569;-75
2022/05/31 07:07:14;;;;;;;7.03;2.20;;;;;;;;;;5016250;28;20034;-76
2022/05/31 07:09:39;;;;;;;4.90;2.20;;;;;;;;;;5015709;28;20330;-76
2022/05/31 07:12:05;;;;;;;4.85;1.92;;;;;;;;;;5015905;28;20426;-77
2022/05/31 07:14:30;;;;;;;2.90;1.85;;;;;;;;;;5016051;28;20030;-75
2022/05/31 07:16:55;;;;;;;7.00;1.88;;;;;;;;;;5015595;28;20061;-76
2022/05/31 07:19:21;;;;;;;2.50;1.90;;;;;;;;;;5014593;28;20021;-76
2022/05/31 07:21:46;;;;;;;3.58;1.75;;;;;;;;;;5015568;28;20263;-76
2022/05/31 07:24:11;;;;;;;3.80;1.95;;;;;;;;;;5015460;28;20163;-77
2022/05/31 07:26:38;;;;;;;4.32;1.92;;;;;;;;;;4997803;28;20029;-76
2022/05/31 07:29:04;;;;;;;2.25;1.52;;;;;;;;;;5015413;28;20080;-76
2022/05/31 07:31:29;;;;;;;4.68;1.52;;;;;;;;;;5015361;28;20394;-76
2022/05/31 07:33:55;;;;;;;1.88;1.42;;;;;;;;;;5015190;28;20595;-76
2022/05/31 07:36:20;;;;;;;2.45;1.50;;;;;;;;;;5015197;28;20025;-76
2022/05/31 07:38:45;;;;;;;2.70;1.80;;;;;;;;;;5015220;28;20018;-75
2022/05/31 07:41:11;;;;;;;2.78;1.55;;;;;;;;;;5015437;28;20375;-76
2022/05/31 07:43:36;;;;;;;4.93;1.73;;;;;;;;;;5015045;28;20104;-76
2022/05/31 07:46:07;;;;;;;2.43;1.63;;;;;;;;;;5015143;28;20034;-76
2022/05/31 07:48:36;;;;;;;3.05;1.58;;;;;;;;;;5014967;28;20267;-77
2022/05/31 07:51:02;;;;;;;3.97;1.60;;;;;;;;;;5015094;28;20399;-77
2022/05/31 07:53:27;;;;;;;2.00;1.30;;;;;;;;;;5015431;28;20068;-77
2022/05/31 07:56:09;;;;;;;1.70;1.38;;;;;;;;;;5015360;28;20453;-76
2022/05/31 07:58:37;;;;;;;6.97;1.80;;;;;;;;;;5015163;28;20029;-80
2022/05/31 08:01:05;;;;;;;7.10;1.50;;;;;;;;;;5015188;28;20044;-77
2022/05/31 08:03:32;;;;;;;4.20;1.20;;;;;;;;;;4997641;28;20040;-77
2022/05/31 08:06:02;;;;;;;4.70;1.60;;;;;;;;;;5015100;28;20052;-76
2022/05/31 08:08:27;;;;;;;2.42;1.33;;;;;;;;;;4997251;28;20088;-76
2022/05/31 08:10:52;;;;;;;2.27;1.40;;;;;;;;;;5014956;28;20018;-77
2022/05/31 08:13:20;;;;;;;1.87;1.30;;;;;;;;;;5015134;28;20354;-77
2022/05/31 08:15:45;;;;;;;2.85;1.35;;;;;;;;;;5014988;28;20259;-76
2022/05/31 08:18:12;;;;;;;1.52;1.30;;;;;;;;;;5014615;28;20148;-76
2022/05/31 08:20:39;;;;;;;3.85;1.60;;;;;;;;;;5014395;28;20026;-76
2022/05/31 08:23:04;;;;;;;2.70;1.60;;;;;;;;;;5014784;28;20125;-77
2022/05/31 08:25:33;;;;;;;2.67;1.42;;;;;;;;;;5014635;28;20053;-77
2022/05/31 08:27:59;;;;;;;2.50;1.40;;;;;;;;;;5014734;28;20022;-77
2022/05/31 08:30:24;;;;;;;2.70;1.33;;;;;;;;;;5014579;28;20486;-77
2022/05/31 08:32:49;;;;;;;3.93;1.50;;;;;;;;;;5014441;28;20756;-76
2022/05/31 08:35:14;;;;;;;1.90;1.20;;;;;;;;;;4996822;28;20782;-76
2022/05/31 08:37:40;;;;;;;4.20;1.60;;;;;;;;;;5014632;28;20670;-77
2022/05/31 08:40:06;;;;;;;1.75;1.30;;;;;;;;;;4996533;28;20695;-77
2022/05/31 08:43:04;;;;;;;2.25;1.40;;;;;;;;;;5014442;28;20022;-77
2022/05/31 08:45:52;;;;;;;2.53;1.30;;;;;;;;;;5015001;28;20041;-76
2022/05/31 08:48:58;;;;;;;1.33;1.13;;;;;;;;;;5014098;28;20029;-77
2022/05/31 08:51:53;;;;;;;4.18;1.45;;;;;;;;;;5010221;28;20041;-78
2022/05/31 08:57:44;;;;;;;4.18;1.40;;;;;;;;;;5014427;28;20049;-78
2022/05/31 09:00:20;;;;;;;4.65;1.40;;;;;;;;;;5013782;28;20041;-77
2022/05/31 09:02:54;;;;;;;3.58;1.45;;;;;;;;;;4996048;28;20044;-76
2022/05/31 09:05:23;;;;;;;;;;;;;;;;;;5015160;28;20025;-77
2022/05/31 09:07:53;;;;;;;1.40;1.20;;;;;;;;;;5014268;28;19999;-77
2022/05/31 09:10:35;;;;;;;5.13;1.33;;;;;;;;;;5013874;28;20455;-78
2022/05/31 09:13:23;;;;;;;2.72;1.33;;;;;;;;;;4996459;28;20033;-77
2022/05/31 09:15:59;;;;;;;2.20;1.30;;;;;;;;;;5014328;28;20026;-79
2022/05/31 09:18:54;;;;;;;1.92;1.20;;;;;;;;;;4996542;28;20033;-78
2022/05/31 09:21:34;;;;;;;2.22;1.23;;;;;;;;;;5014195;28;20026;-79
2022/05/31 09:24:00;;;;;;;2.88;1.30;;;;;;;;;;5014214;28;20053;-78
2022/05/31 09:26:46;;;;;;;1.73;1.38;;;;;;;;;;5014321;28;20054;-76
2022/05/31 09:29:23;;;;;;;1.50;1.13;;;;;;;;;;5013727;28;20434;-77
2022/05/31 09:32:15;;;;;;;1.70;1.25;;;;;;;;;;5013457;28;20061;-77
2022/05/31 09:34:55;;;;;;;2.25;1.20;;;;;;;;;;5009058;28;20046;-77
2022/05/31 09:38:15;;;;;;;3.92;1.30;;;;;;;;;;4996160;28;20022;-78
2022/05/31 09:40:49;;;;;;;3.97;1.00;;;;;;;;;;4915027;29;20183;-76
2022/05/31 09:43:27;;;;;;;2.22;1.40;;;;;;;;;;4914635;29;20071;-77
2022/05/31 09:46:16;;;;;;;4.95;1.30;;;;;;;;;;4960700;28;20038;-77
2022/05/31 09:48:46;;;;;;;1.77;1.20;;;;;;;;;;5013822;28;20033;-77
2022/05/31 09:51:38;;;;;;;2.45;1.30;;;;;;;;;;5013747;28;20032;-78
2022/05/31 09:57:06;;;;;;;2.40;1.25;;;;;;;;;;5013927;28;20123;-78
2022/05/31 09:59:34;;;;;;;2.60;1.40;;;;;;;;;;5014050;28;20021;-77
2022/05/31 10:02:19;;;;;;;2.88;1.42;;;;;;;;;;5013306;28;20034;-77
2022/05/31 10:04:47;;;;;;;1.63;1.27;;;;;;;;;;4996181;28;20509;-78
2022/05/31 10:07:13;;;;;;;2.15;1.40;;;;;;;;;;5013335;28;20048;-77
2022/05/31 10:09:42;;;;;;;2.35;1.25;;;;;;;;;;5013873;28;20522;-77
2022/05/31 10:12:13;;;;;;;2.00;1.20;;;;;;;;;;5013404;28;20097;-77
2022/05/31 10:14:47;;;;;;;2.95;1.60;;;;;;;;;;5013137;28;20129;-76
2022/05/31 10:17:23;;;;;;;3.92;1.40;;;;;;;;;;5013286;28;20108;-78
2022/05/31 10:20:06;;;;;;;1.10;1.00;;;;;;;;;;5013082;28;20103;-78
2022/05/31 10:22:31;;;;;;;2.17;1.20;;;;;;;;;;4995432;28;20081;-76
2022/05/31 10:24:56;;;;;;;2.63;1.10;;;;;;;;;;5013377;28;20479;-77
2022/05/31 10:27:26;;;;;;;1.27;0.90;;;;;;;;;;5013543;28;20736;-77
2022/05/31 10:30:01;;;;;;;2.63;1.17;;;;;;;;;;4995562;28;20275;-78
2022/05/31 10:32:47;;;;;;;3.70;1.23;;;;;;;;;;4995453;28;20109;-78
2022/05/31 10:35:26;;;;;;;2.40;1.20;;;;;;;;;;5013918;28;20105;-77
2022/05/31 10:38:00;;;;;;;2.08;1.33;;;;;;;;;;5014637;28;20112;-78
2022/05/31 10:40:37;;;;;;;3.53;1.10;;;;;;;;;;5013587;28;20498;-78
2022/05/31 10:43:25;;;;;;;1.20;1.00;;;;;;;;;;5013268;28;20395;-79
2022/05/31 10:45:51;;;;;;;1.92;1.13;;;;;;;;;;5013288;28;20108;-78
2022/05/31 10:48:17;;;;;;;2.40;1.00;;;;;;;;;;5012904;28;20033;-78
2022/05/31 10:51:07;;;;;;;0.90;0.90;;;;;;;;;;5012892;28;20386;-77
2022/05/31 10:53:51;;;;;;;1.48;1.08;;;;;;;;;;5013407;28;20877;-77
2022/05/31 10:56:28;;;;;;;2.63;1.30;;;;;;;;;;5016647;28;20026;-79
2022/05/31 10:59:03;;;;;;;1.70;1.02;;;;;;;;;;5016475;28;20029;-77
2022/05/31 11:02:10;;;;;;;3.83;1.20;;;;;;;;;;5016611;28;20033;-78
2022/05/31 11:04:59;;;;;;;2.42;1.20;;;;;;;;;;4946233;28;20044;-78
2022/05/31 11:07:40;;;;;;;1.60;1.17;;;;;;;;;;5016710;28;20036;-78
2022/05/31 11:13:39;;;;;;;3.28;1.10;;;;;;;;;;5029389;28;20040;-76
2022/05/31 11:16:15;;;;;;;4.53;1.30;;;;;;;;;;5026144;28;20112;-76
2022/05/31 11:19:04;;;;;;;3.30;1.10;;;;;;;;;;5026895;28;20068;-76
2022/05/31 11:21:42;;;;;;;3.15;1.27;;;;;;;;;;5023254;28;20414;-77
2022/05/31 11:24:22;;;;;;;2.55;1.30;;;;;;;;;;5030407;28;20088;-75
2022/05/31 11:27:00;;;;;;;1.90;1.10;;;;;;;;;;5029488;28;20029;-76
2022/05/31 11:29:37;;;;;;;1.60;1.10;;;;;;;;;;5030541;28;20388;-78
2022/05/31 11:32:24;;;;;;;1.70;1.10;;;;;;;;;;5013219;28;20033;-76
2022/05/31 11:35:10;;;;;;;2.03;1.27;;;;;;;;;;5028379;28;20033;-76
2022/05/31 11:37:56;;;;;;;1.90;1.20;;;;;;;;;;5003983;28;20030;-75
2022/05/31 11:40:49;;;;;;;1.92;1.05;;;;;;;;;;5024147;28;20079;-76
2022/05/31 11:43:32;;;;;;;2.17;1.05;;;;;;;;;;5024175;28;20026;-77
2022/05/31 11:46:06;;;;;;;1.20;1.00;;;;;;;;;;5017640;28;20022;-76
2022/05/31 11:49:01;;;;;;;4.47;1.48;;;;;;;;;;5003748;28;20037;-77
2022/05/31 11:51:49;;;;;;;2.33;1.20;;;;;;;;;;5004749;28;20112;-77
2022/05/31 11:55:25;;;;;;;1.35;0.90;;;;;;;;;;4997850;28;20022;-77
2022/05/31 11:57:49;;;;;;;1.40;1.10;;;;;;;;;;5014955;28;20026;-77
2022/05/31 12:00:16;;;;;;;2.95;1.17;;;;;;;;;;5014965;28;20029;-76
2022/05/31 12:03:11;;;;;;;2.53;1.40;;;;;;;;;;4997409;28;20400;-76
2022/05/31 12:05:43;;;;;;;1.88;1.08;;;;;;;;;;5014348;28;20033;-76
2022/05/31 12:08:16;;;;;;;3.70;1.23;;;;;;;;;;5015483;28;20048;-78
2022/05/31 12:10:46;;;;;;;3.90;1.20;;;;;;;;;;5015383;28;20080;-76
2022/05/31 12:13:15;;;;;;;1.63;1.13;;;;;;;;;;5014794;28;20095;-77
2022/05/31 12:15:43;;;;;;;4.30;1.10;;;;;;;;;;5014581;28;20080;-77
2022/05/31 12:18:13;;;;;;;2.63;1.13;;;;;;;;;;5016005;28;20030;-77
2022/05/31 12:20:55;;;;;;;3.88;1.30;;;;;;;;;;5014721;28;20095;-80
2022/05/31 12:23:26;;;;;;;2.28;1.25;;;;;;;;;;5015070;28;20022;-77
2022/05/31 12:25:56;;;;;;;1.75;1.20;;;;;;;;;;5014600;28;20021;-78
2022/05/31 12:28:26;;;;;;;5.13;1.10;;;;;;;;;;4997167;28;20021;-78
2022/05/31 12:30:58;;;;;;;2.78;0.90;;;;;;;;;;5014455;28;20032;-77
2022/05/31 12:33:43;;;;;;;2.03;1.20;;;;;;;;;;5014306;28;20483;-77
2022/05/31 12:36:11;;;;;;;1.73;1.05;;;;;;;;;;5014392;28;20030;-77
2022/05/31 12:39:06;;;;;;;4.07;1.33;;;;;;;;;;5014392;28;20022;-76
2022/05/31 12:41:37;;;;;;;1.67;1.00;;;;;;;;;;5013960;28;20160;-77
2022/05/31 12:44:09;;;;;;;2.35;1.17;;;;;;;;;;5014767;28;20025;-77
2022/05/31 12:46:45;;;;;;;3.10;1.27;;;;;;;;;;5014672;28;20044;-77
2022/05/31 12:49:24;;;;;;;1.70;1.30;;;;;;;;;;5014187;28;20475;-77
2022/05/31 12:54:56;;;;;;;3.60;1.15;;;;;;;;;;5014191;28;20034;-79
2022/05/31 12:57:30;;;;;;;1.58;1.20;;;;;;;;;;5014231;28;20037;-78
2022/05/31 12:59:56;;;;;;;3.03;1.00;;;;;;;;;;5014110;28;20057;-78
2022/05/31 13:02:35;;;;;;;4.32;1.30;;;;;;;;;;5014196;28;20026;-77
2022/05/31 13:05:06;;;;;;;2.88;1.25;;;;;;;;;;5014963;28;20323;-77
2022/05/31 13:07:46;;;;;;;5.35;1.35;;;;;;;;;;5014290;28;20026;-77
2022/05/31 13:10:33;;;;;;;3.45;1.40;;;;;;;;;;5014162;28;20513;-77
2022/05/31 13:21:27;;;;;;;5.60;1.20;;;;;;;;;;5013611;28;20161;-78
2022/05/31 13:23:53;;;;;;;1.75;1.20;;;;;;;;;;5013865;28;20051;-77
2022/05/31 13:26:26;;;;;;;3.08;1.20;;;;;;;;;;5013729;28;20032;-78
2022/05/31 13:29:09;;;;;;;4.67;1.20;;;;;;;;;;5014139;28;20021;-78
2022/05/31 13:31:47;;;;;;;1.83;1.08;;;;;;;;;;5013555;28;20034;-79
2022/05/31 13:34:25;;;;;;;4.65;1.20;;;;;;;;;;5014354;28;20041;-78
2022/05/31 13:36:52;;;;;;;1.85;1.08;;;;;;;;;;5013657;28;20096;-77
2022/05/31 13:39:18;;;;;;;3.25;1.00;;;;;;;;;;5013323;28;20036;-78
2022/05/31 13:42:02;;;;;;;5.60;1.38;;;;;;;;;;5013406;28;20025;-78
2022/05/31 13:44:35;;;;;;;2.95;1.40;;;;;;;;;;5014207;28;20025;-76
2022/05/31 13:47:06;;;;;;;2.70;1.20;;;;;;;;;;5013620;28;20502;-78
2022/05/31 13:49:37;;;;;;;1.90;1.10;;;;;;;;;;4995676;28;20121;-78
2022/05/31 13:52:05;;;;;;;2.40;1.10;;;;;;;;;;5013269;28;20084;-78
2022/05/31 13:54:41;;;;;;;1.30;1.20;;;;;;;;;;5013083;28;20562;-77
2022/05/31 13:57:06;;;;;;;1.35;0.90;;;;;;;;;;5013247;28;20403;-79
2022/05/31 13:59:40;;;;;;;2.53;1.10;;;;;;;;;;5013601;28;20014;-77
2022/05/31 14:02:23;;;;;;;1.40;1.20;;;;;;;;;;5013215;28;20100;-77
2022/05/31 14:04:59;;;;;;;2.72;1.20;;;;;;;;;;5013467;28;20395;-77
2022/05/31 14:07:32;;;;;;;5.20;1.30;;;;;;;;;;5013825;28;20029;-77
2022/05/31 14:09:58;;;;;;;4.38;1.20;;;;;;;;;;4995702;28;20037;-78
2022/05/31 14:12:27;;;;;;;1.98;1.10;;;;;;;;;;5013331;28;20475;-76
2022/05/31 14:14:53;;;;;;;2.15;1.15;;;;;;;;;;5012968;28;20030;-77
2022/05/31 14:17:31;;;;;;;1.90;1.20;;;;;;;;;;5012887;28;20505;-77
2022/05/31 14:19:57;;;;;;;2.65;1.30;;;;;;;;;;4995412;28;20032;-77
2022/05/31 14:22:30;;;;;;;2.83;1.20;;;;;;;;;;4995260;28;20022;-77
2022/05/31 14:24:57;;;;;;;1.95;1.00;;;;;;;;;;5012997;28;20037;-77
2022/05/31 14:27:26;;;;;;;1.80;1.20;;;;;;;;;;5012947;28;20026;-78
2022/05/31 14:30:08;;;;;;;4.80;1.25;;;;;;;;;;5015763;28;20030;-78
2022/05/31 14:32:44;;;;;;;3.45;1.10;;;;;;;;;;5016407;28;20040;-76
2022/05/31 14:35:34;;;;;;;2.40;1.13;;;;;;;;;;4999209;28;20448;-77
2022/05/31 14:38:04;;;;;;;1.80;1.25;;;;;;;;;;5016718;28;20041;-77
2022/05/31 14:40:32;;;;;;;3.35;1.20;;;;;;;;;;5016443;28;20029;-77
2022/05/31 14:43:06;;;;;;;2.60;1.23;;;;;;;;;;4998867;28;20053;-78
2022/05/31 14:45:39;;;;;;;3.30;1.23;;;;;;;;;;5016572;28;20471;-77
2022/05/31 14:48:36;;;;;;;4.93;1.17;;;;;;;;;;5016532;28;20030;-77
2022/05/31 14:51:10;;;;;;;3.38;1.20;;;;;;;;;;5016032;28;20101;-77
2022/05/31 14:53:40;;;;;;;3.75;1.33;;;;;;;;;;5016561;28;20029;-76
2022/05/31 14:56:24;;;;;;;3.28;1.20;;;;;;;;;;5016456;28;20030;-78
2022/05/31 14:58:54;;;;;;;2.72;1.20;;;;;;;;;;5016041;28;20026;-76
2022/05/31 15:01:40;;;;;;;1.42;1.05;;;;;;;;;;5016058;28;20040;-77
2022/05/31 15:04:27;;;;;;;1.83;1.20;;;;;;;;;;5015988;28;20092;-78
2022/05/31 15:07:01;;;;;;;6.18;1.20;;;;;;;;;;5016380;28;20029;-77
2022/05/31 15:09:29;;;;;;;8.57;1.30;;;;;;;;;;5015979;28;20022;-77
2022/05/31 15:20:21;;;;;;;2.20;1.23;;;;;;;;;;5016790;28;20032;-78
2022/05/31 15:22:47;;;;;;;3.75;1.20;;;;;;;;;;5015890;28;20023;-78
2022/05/31 15:25:19;;;;;;;2.25;1.30;;;;;;;;;;5015915;28;20133;-78
2022/05/31 15:27:44;;;;;;;1.63;1.20;;;;;;;;;;5015735;28;20029;-77
2022/05/31 15:30:10;;;;;;;1.50;1.10;;;;;;;;;;4998196;28;20044;-78
2022/05/31 15:32:36;;;;;;;2.97;1.17;;;;;;;;;;4998553;28;20088;-77
2022/05/31 15:35:02;;;;;;;1.30;1.20;;;;;;;;;;5015861;28;20034;-78
2022/05/31 15:37:29;;;;;;;4.28;1.20;;;;;;;;;;5015930;28;20097;-77
2022/05/31 15:39:56;;;;;;;1.52;1.00;;;;;;;;;;5014836;28;20054;-78
2022/05/31 15:42:21;;;;;;;3.75;1.10;;;;;;;;;;5015691;28;20087;-77
2022/05/31 15:44:48;;;;;;;2.40;1.13;;;;;;;;;;5015915;28;20449;-77
2022/05/31 15:47:14;;;;;;;4.70;1.23;;;;;;;;;;4997839;28;20483;-79